Time;durP1;ratioP1;P1;durP2;ratioP2;P2;SDS_P1;SDS_P2;PMS_P1;PMS_P2;Temp;Humidity;BMP_temperature;BMP_pressure;BME280_temperature;BME280_humidity;BME280_pressure;Samples;Min_cycle;Max_cycle;Signal;HPM_P1;HPM_P2
2022/11/10 00:00:32;;;;;;;32.97;23.10;;;;;;;9.27;100.00;100755.02;1422700;91;21425;-83
2022/11/10 00:03:05;;;;;;;34.33;23.97;;;;;;;9.29;100.00;100755.70;1439042;90;21469;-82
2022/11/10 00:05:32;;;;;;;32.07;22.27;;;;;;;9.31;100.00;100760.38;1421536;92;21353;-81
2022/11/10 00:08:04;;;;;;;34.03;21.97;;;;;;;9.37;100.00;100759.84;1380281;93;22330;-81
2022/11/10 00:10:32;;;;;;;34.57;23.17;;;;;;;9.44;100.00;100759.69;1424525;92;21556;-82
2022/11/10 00:13:02;;;;;;;35.53;24.13;;;;;;;9.52;100.00;100759.00;1401831;91;22678;-82
2022/11/10 00:18:13;;;;;;;37.67;25.50;;;;;;;9.61;100.00;100754.27;1452812;90;22146;-81
2022/11/10 00:20:39;;;;;;;34.17;23.30;;;;;;;9.65;100.00;100749.05;1449707;88;21421;-82
2022/11/10 00:23:05;;;;;;;36.57;23.10;;;;;;;9.71;100.00;100753.80;1448818;90;21366;-83
2022/11/10 00:25:32;;;;;;;39.77;24.20;;;;;;;9.77;100.00;100756.40;1447881;90;21417;-80
2022/11/10 00:27:59;;;;;;;36.40;23.20;;;;;;;9.83;100.00;100751.89;1443603;90;21411;-80
2022/11/10 00:30:26;;;;;;;35.17;22.60;;;;;;;9.90;100.00;100753.04;1428577;90;21454;-78
2022/11/10 00:32:52;;;;;;;35.07;22.90;;;;;;;9.95;100.00;100749.97;1436067;90;21395;-79
2022/11/10 00:35:18;;;;;;;32.07;22.30;;;;;;;9.99;100.00;100751.88;1447492;90;21389;-80
2022/11/10 00:37:44;;;;;;;34.97;23.00;;;;;;;9.97;100.00;100743.23;1448936;90;21433;-80
2022/11/10 00:40:11;;;;;;;36.03;22.57;;;;;;;10.01;100.00;100751.23;1450965;90;22459;-81
2022/11/10 00:42:37;;;;;;;34.20;22.77;;;;;;;10.03;100.00;100749.30;1425049;91;21495;-80
2022/11/10 00:45:04;;;;;;;33.47;22.90;;;;;;;10.07;100.00;100748.05;1426625;91;21418;-82
2022/11/10 00:47:31;;;;;;;33.80;22.37;;;;;;;10.10;100.00;100745.98;1432534;91;21588;-80
2022/11/10 00:49:57;;;;;;;32.93;22.57;;;;;;;10.15;100.00;100749.03;1424421;91;21389;-82
2022/11/10 00:52:23;;;;;;;35.47;23.90;;;;;;;10.19;100.00;100739.53;1426248;91;21448;-83
2022/11/10 00:54:49;;;;;;;35.23;23.40;;;;;;;10.20;100.00;100736.73;1435584;90;21373;-82
2022/11/10 00:57:15;;;;;;;36.20;25.23;;;;;;;10.23;100.00;100740.91;1447782;90;21455;-82
2022/11/10 00:59:41;;;;;;;36.87;25.87;;;;;;;10.22;100.00;100741.41;1444671;90;21393;-81
2022/11/10 01:02:07;;;;;;;36.40;25.67;;;;;;;10.24;100.00;100745.22;1452862;90;21381;-84
2022/11/10 01:04:33;;;;;;;37.87;25.17;;;;;;;10.25;100.00;100747.74;1447107;90;21410;-81
2022/11/10 01:06:59;;;;;;;33.97;22.80;;;;;;;10.28;100.00;100738.73;1433759;90;21417;-83
2022/11/10 01:09:26;;;;;;;33.23;23.33;;;;;;;10.30;100.00;100736.30;1445493;90;21529;-83
2022/11/10 01:11:52;;;;;;;35.20;23.43;;;;;;;10.32;100.00;100740.94;1445035;89;22056;-84
2022/11/10 01:14:17;;;;;;;37.43;24.17;;;;;;;10.35;100.00;100739.34;1443788;90;21521;-81
2022/11/10 01:16:43;;;;;;;44.77;25.53;;;;;;;10.38;100.00;100740.38;1445105;90;21500;-83
2022/11/10 01:19:09;;;;;;;35.90;24.40;;;;;;;10.41;100.00;100741.92;1444713;90;21418;-80
2022/11/10 01:21:35;;;;;;;33.90;25.43;;;;;;;10.42;100.00;100744.11;1452176;89;21418;-82
2022/11/10 01:24:02;;;;;;;33.80;23.13;;;;;;;10.41;100.00;100742.41;1444338;90;23695;-83
2022/11/10 01:26:28;;;;;;;35.10;23.63;;;;;;;10.42;100.00;100741.46;1448882;90;21513;-83
2022/11/10 01:28:54;;;;;;;36.20;23.87;;;;;;;10.42;100.00;100740.97;1443963;90;21350;-80
2022/11/10 01:31:21;;;;;;;32.67;23.07;;;;;;;10.44;100.00;100750.91;1450351;90;21403;-82
2022/11/10 01:33:47;;;;;;;36.50;24.27;;;;;;;10.45;100.00;100746.47;1449089;90;21396;-83
2022/11/10 01:36:13;;;;;;;36.80;26.53;;;;;;;10.44;100.00;100748.25;1443933;89;21477;-83
2022/11/10 01:38:42;;;;;;;36.27;25.73;;;;;;;10.45;100.00;100749.12;1447601;90;21336;-83
2022/11/10 01:41:11;;;;;;;34.17;25.53;;;;;;;10.41;100.00;100753.83;1444968;90;22640;-84
2022/11/10 01:43:37;;;;;;;34.70;24.10;;;;;;;10.42;100.00;100748.08;1447787;90;22415;-81
2022/11/10 01:46:11;;;;;;;33.90;24.00;;;;;;;10.45;100.00;100750.44;1446928;90;21424;-81
2022/11/10 01:48:57;;;;;;;31.63;23.00;;;;;;;10.46;100.00;100746.31;1435953;90;21417;-81
2022/11/10 01:51:31;;;;;;;33.90;20.60;;;;;;;10.48;100.00;100742.22;1442275;90;21579;-80
2022/11/10 01:54:02;;;;;;;32.00;22.70;;;;;;;10.51;100.00;100745.91;1456723;90;22092;-81
2022/11/10 01:56:33;;;;;;;32.67;23.70;;;;;;;10.54;100.00;100745.63;1451549;90;21485;-80
2022/11/10 01:59:02;;;;;;;;;;;;;;;10.56;100.00;100737.91;1455845;90;21359;-81
2022/11/10 02:01:29;;;;;;;35.40;24.00;;;;;;;10.53;100.00;100737.32;1448856;90;20430;-79
2022/11/10 02:04:05;;;;;;;35.43;24.97;;;;;;;10.51;100.00;100743.27;1447823;90;21404;-83
2022/11/10 02:06:35;;;;;;;33.67;22.57;;;;;;;10.50;100.00;100743.76;1444879;90;22188;-83
2022/11/10 02:09:02;;;;;;;33.58;24.25;;;;;;;10.47;100.00;100734.78;1445808;90;21411;-83
2022/11/10 02:11:29;;;;;;;32.90;22.03;;;;;;;10.47;100.00;100734.78;1442107;90;21351;-82
2022/11/10 02:13:56;;;;;;;26.80;19.97;;;;;;;10.54;100.00;100741.66;1443895;90;21358;-84
2022/11/10 02:16:23;;;;;;;30.67;23.03;;;;;;;10.54;100.00;100745.14;1435833;90;21433;-83
2022/11/10 02:18:49;;;;;;;29.40;22.37;;;;;;;10.55;100.00;100743.32;1443448;90;21469;-83
2022/11/10 02:21:20;;;;;;;35.77;25.10;;;;;;;10.55;100.00;100748.13;1443229;90;21402;-83
2022/11/10 02:23:53;;;;;;;;;;;;;;;10.55;100.00;100748.61;1446814;90;21344;-83
2022/11/10 02:26:24;;;;;;;27.57;20.37;;;;;;;10.54;100.00;100759.69;1443170;90;20401;-82
2022/11/10 02:28:50;;;;;;;33.23;22.17;;;;;;;10.52;100.00;100755.52;1454170;90;22171;-84
2022/11/10 02:31:16;;;;;;;30.57;20.13;;;;;;;10.54;100.00;100756.22;1452280;90;21500;-81
2022/11/10 02:33:42;;;;;;;27.00;20.03;;;;;;;10.57;100.00;100750.64;1432517;90;22519;-83
2022/11/10 02:36:08;;;;;;;33.00;22.57;;;;;;;10.62;100.00;100752.39;1437359;90;21337;-84
2022/11/10 02:38:35;;;;;;;31.37;21.80;;;;;;;10.65;100.00;100752.11;1430849;90;21296;-83
2022/11/10 02:41:02;;;;;;;37.50;22.53;;;;;;;10.66;100.00;100748.97;1432119;88;21397;-82
2022/11/10 02:43:28;;;;;;;36.67;25.23;;;;;;;10.65;100.00;100750.78;1468791;88;21375;-83
2022/11/10 02:45:54;;;;;;;30.50;21.50;;;;;;;10.65;100.00;100756.08;1468543;87;22006;-82
2022/11/10 02:48:21;;;;;;;34.43;23.63;;;;;;;10.63;100.00;100755.37;1471867;87;21464;-83
2022/11/10 02:50:47;;;;;;;27.63;20.70;;;;;;;10.64;100.00;100759.68;1462775;88;21343;-83
2022/11/10 02:53:13;;;;;;;30.57;22.23;;;;;;;10.64;100.00;100753.55;1448434;90;21403;-82
2022/11/10 02:55:39;;;;;;;27.00;20.50;;;;;;;10.66;100.00;100761.70;1417824;91;21458;-83
2022/11/10 02:58:05;;;;;;;26.80;19.80;;;;;;;10.69;100.00;100761.42;1399905;92;21415;-84
2022/11/10 03:00:31;;;;;;;31.10;21.63;;;;;;;10.69;100.00;100758.78;1400538;93;21607;-84
2022/11/10 03:03:00;;;;;;;31.13;23.40;;;;;;;10.70;100.00;100757.80;1414021;93;22455;-84
2022/11/10 03:05:28;;;;;;;29.00;21.33;;;;;;;10.67;100.00;100763.37;1442818;89;22319;-81
2022/11/10 03:07:59;;;;;;;33.83;23.00;;;;;;;10.65;100.00;100763.19;1449576;89;22268;-81
2022/11/10 03:10:26;;;;;;;33.13;23.38;;;;;;;10.65;100.00;100769.31;1451379;90;21660;-82
2022/11/10 03:12:54;;;;;;;27.97;20.17;;;;;;;10.65;100.00;100769.31;1452386;90;21323;-83
2022/11/10 03:15:21;;;;;;;27.07;19.63;;;;;;;10.66;100.00;100764.36;1452198;90;21506;-82
2022/11/10 03:17:48;;;;;;;32.03;22.93;;;;;;;10.66;100.00;100761.70;1445158;90;21380;-82
2022/11/10 03:20:14;;;;;;;31.50;22.97;;;;;;;10.70;100.00;100773.67;1445844;89;21411;-83
2022/11/10 03:22:41;;;;;;;34.63;24.17;;;;;;;10.71;100.00;100771.89;1448293;90;21573;-81
2022/11/10 03:25:09;;;;;;;32.63;22.47;;;;;;;10.71;100.00;100772.72;1443975;90;21321;-84
2022/11/10 03:27:35;;;;;;;30.27;20.87;;;;;;;10.68;99.95;100762.41;1447970;89;21329;-84
2022/11/10 03:30:01;;;;;;;30.40;21.47;;;;;;;10.65;99.96;100769.31;1446618;89;22478;-84
2022/11/10 03:32:27;;;;;;;30.77;21.20;;;;;;;10.66;100.00;100774.94;1449127;89;21396;-84
2022/11/10 03:34:54;;;;;;;29.60;21.00;;;;;;;10.66;99.96;100776.27;1438164;90;21439;-85
2022/11/10 03:37:20;;;;;;;30.90;20.13;;;;;;;10.69;100.00;100773.34;1448148;89;21360;-83
2022/11/10 03:39:46;;;;;;;32.17;21.00;;;;;;;10.72;100.00;100771.73;1452956;89;22262;-84
2022/11/10 03:42:12;;;;;;;35.20;23.33;;;;;;;10.73;99.81;100770.78;1450750;89;21515;-84
2022/11/10 03:44:39;;;;;;;34.53;22.37;;;;;;;10.73;99.54;100769.45;1449691;89;22284;-81
2022/11/10 03:47:05;;;;;;;29.13;22.27;;;;;;;10.71;99.38;100766.10;1446156;90;21369;-84
2022/11/10 03:49:31;;;;;;;30.70;21.60;;;;;;;10.69;99.18;100766.72;1447400;89;21528;-83
2022/11/10 03:51:57;;;;;;;31.00;21.07;;;;;;;10.70;99.31;100768.87;1451781;90;21544;-83
2022/11/10 03:54:23;;;;;;;34.90;21.87;;;;;;;10.69;99.37;100774.66;1445269;89;21662;-83
2022/11/10 03:56:49;;;;;;;32.10;22.27;;;;;;;10.70;99.50;100772.35;1450371;90;21633;-83
2022/11/10 03:59:15;;;;;;;35.67;22.17;;;;;;;10.72;99.53;100767.77;1449144;89;21935;-82
2022/11/10 04:01:41;;;;;;;31.43;20.97;;;;;;;10.75;99.44;100776.74;1445034;90;22304;-85
2022/11/10 04:08:57;;;;;;;38.53;23.53;;;;;;;10.75;99.14;100775.42;1447032;88;21485;-83
2022/11/10 04:09:22;;;;;;;38.60;24.00;;;;;;;10.75;98.78;100782.53;1436597;90;21425;-83
2022/11/10 04:17:18;;;;;;;29.60;20.63;;;;;;;10.67;98.69;100785.03;1449093;90;21374;-84
2022/11/10 04:19:44;;;;;;;29.83;21.20;;;;;;;10.69;98.81;100782.60;1447066;90;22289;-83
2022/11/10 04:23:25;;;;;;;30.07;20.23;;;;;;;10.72;98.84;100786.78;1444723;90;21381;-82
2022/11/10 04:24:38;;;;;;;31.10;22.17;;;;;;;10.74;98.75;100788.33;1441350;90;21389;-81
2022/11/10 04:27:04;;;;;;;33.17;21.53;;;;;;;10.75;98.62;100786.02;1446688;89;22354;-84
2022/11/10 04:29:30;;;;;;;29.67;20.47;;;;;;;10.73;98.21;100786.66;1452433;90;22202;-83
2022/11/10 04:31:56;;;;;;;28.90;20.97;;;;;;;10.69;97.97;100785.25;1448138;90;22129;-82
2022/11/10 04:34:22;;;;;;;29.07;20.80;;;;;;;10.67;98.00;100783.22;1435650;90;21433;-82
2022/11/10 04:36:48;;;;;;;30.77;21.67;;;;;;;10.66;98.02;100787.34;1453226;90;21367;-84
2022/11/10 04:39:14;;;;;;;25.50;18.83;;;;;;;10.63;97.85;100788.95;1446215;90;21463;-84
2022/11/10 04:41:40;;;;;;;26.53;21.20;;;;;;;10.60;97.96;100788.25;1444037;90;21323;-84
2022/11/10 04:44:06;;;;;;;26.10;19.70;;;;;;;10.59;98.00;100791.05;1444745;90;21359;-82
2022/11/10 04:46:39;;;;;;;32.37;21.57;;;;;;;10.60;97.94;100797.52;1445596;90;21440;-82
2022/11/10 04:49:06;;;;;;;31.23;21.83;;;;;;;10.58;97.82;100795.97;1444240;90;21447;-83
2022/11/10 04:51:37;;;;;;;31.60;20.87;;;;;;;10.57;97.84;100795.64;1443924;90;21381;-83
2022/11/10 04:54:06;;;;;;;29.37;20.85;;;;;;;10.57;97.92;100800.93;1453889;89;21902;-84
2022/11/10 04:56:33;;;;;;;23.37;18.10;;;;;;;10.55;98.05;100799.73;1452966;90;22357;-83
2022/11/10 04:58:59;;;;;;;30.43;19.83;;;;;;;10.56;98.10;100804.56;1446820;90;22306;-83
2022/11/10 05:01:27;;;;;;;30.90;20.03;;;;;;;10.58;98.25;100803.42;1446448;90;21388;-84
2022/11/10 05:03:54;;;;;;;29.03;20.93;;;;;;;10.59;97.83;100808.25;1444289;90;21561;-82
2022/11/10 05:06:21;;;;;;;27.63;20.50;;;;;;;10.57;97.57;100802.25;1442770;89;22298;-82
2022/11/10 05:08:48;;;;;;;30.63;20.70;;;;;;;10.56;97.52;100810.69;1450774;89;21551;-81
2022/11/10 05:11:14;;;;;;;34.97;23.53;;;;;;;10.57;97.47;100811.52;1449289;89;21293;-81
2022/11/10 05:13:41;;;;;;;27.20;21.00;;;;;;;10.56;97.41;100816.47;1450890;89;21416;-83
2022/11/10 05:16:08;;;;;;;29.50;21.13;;;;;;;10.56;97.58;100819.12;1447184;90;21378;-83
2022/11/10 05:18:34;;;;;;;31.13;22.57;;;;;;;10.59;97.82;100816.19;1448736;90;22260;-84
2022/11/10 05:21:00;;;;;;;32.20;22.30;;;;;;;10.61;97.83;100816.87;1450737;90;21373;-83
2022/11/10 05:23:40;;;;;;;30.90;21.57;;;;;;;10.64;97.81;100815.27;1451815;90;21565;-81
2022/11/10 05:26:11;;;;;;;30.67;20.90;;;;;;;10.66;97.65;100818.62;1447656;90;21395;-84
2022/11/10 05:28:41;;;;;;;31.10;21.20;;;;;;;10.67;97.49;100818.95;1443258;89;21441;-83
2022/11/10 05:31:08;;;;;;;32.47;21.27;;;;;;;10.69;97.44;100825.45;1446852;89;21315;-83
2022/11/10 05:33:36;;;;;;;28.27;20.77;;;;;;;10.67;97.26;100820.28;1437192;89;21403;-81
2022/11/10 05:36:04;;;;;;;25.77;19.77;;;;;;;10.68;97.28;100828.59;1419958;90;21397;-83
2022/11/10 05:38:31;;;;;;;31.77;21.57;;;;;;;10.68;97.37;100831.23;1448757;90;21528;-83
2022/11/10 05:40:57;;;;;;;28.67;18.93;;;;;;;10.71;97.54;100838.07;1426762;90;21879;-84
2022/11/10 05:43:23;;;;;;;28.67;19.67;;;;;;;10.75;97.63;100834.98;1444083;90;22165;-83
2022/11/10 05:45:50;;;;;;;30.07;19.33;;;;;;;10.78;97.53;100832.55;1430538;90;21337;-83
2022/11/10 05:48:17;;;;;;;26.07;19.67;;;;;;;10.79;97.26;100829.78;1449988;90;21380;-82
2022/11/10 05:50:44;;;;;;;31.37;23.07;;;;;;;10.80;97.16;100836.74;1450633;89;22634;-80
2022/11/10 05:53:11;;;;;;;29.50;21.87;;;;;;;10.81;97.04;100838.41;1441824;90;21344;-81
2022/11/10 05:55:37;;;;;;;35.50;21.70;;;;;;;10.80;96.93;100842.03;1451425;90;22281;-83
2022/11/10 05:58:04;;;;;;;34.03;21.67;;;;;;;10.81;97.07;100842.86;1452084;90;21514;-83
2022/11/10 06:00:31;;;;;;;28.40;20.67;;;;;;;10.82;97.13;100844.56;1448809;90;22209;-82
2022/11/10 06:03:01;;;;;;;32.43;22.07;;;;;;;10.83;97.13;100851.02;1446734;90;21668;-82
2022/11/10 06:05:30;;;;;;;35.65;22.20;;;;;;;10.87;97.20;100854.72;1444513;90;21367;-83
2022/11/10 06:07:56;;;;;;;33.73;22.20;;;;;;;10.89;97.11;100855.42;1434686;90;21476;-82
2022/11/10 06:10:23;;;;;;;30.47;21.77;;;;;;;10.92;97.05;100861.77;1446278;90;21351;-82
2022/11/10 06:12:49;;;;;;;36.37;23.73;;;;;;;10.94;96.84;100863.80;1447353;90;22239;-82
2022/11/10 06:15:16;;;;;;;34.53;23.53;;;;;;;10.98;96.98;100870.47;1447119;90;21447;-84
2022/11/10 06:17:42;;;;;;;33.30;20.47;;;;;;;11.03;97.05;100874.87;1447211;89;21359;-83
2022/11/10 06:20:10;;;;;;;34.80;21.57;;;;;;;11.09;97.21;100879.61;1442050;89;22765;-80
2022/11/10 06:22:36;;;;;;;34.90;21.20;;;;;;;11.14;97.01;100884.00;1446986;90;22239;-82
2022/11/10 06:25:03;;;;;;;33.00;22.00;;;;;;;11.17;96.71;100885.53;1438644;90;21501;-82
2022/11/10 06:27:29;;;;;;;29.83;23.40;;;;;;;11.22;96.46;100896.06;1444086;90;21617;-82
2022/11/10 06:29:55;;;;;;;36.00;22.17;;;;;;;11.26;96.16;100892.64;1451381;90;21845;-80
2022/11/10 06:32:22;;;;;;;36.93;22.30;;;;;;;11.27;95.79;100896.45;1450724;90;22856;-81
2022/11/10 06:34:48;;;;;;;34.63;23.40;;;;;;;11.27;95.46;100902.25;1453149;90;22246;-80
2022/11/10 06:37:40;;;;;;;25.17;19.93;;;;;;;11.28;95.40;100905.27;1447591;90;21366;-87
2022/11/10 06:40:13;;;;;;;32.47;20.30;;;;;;;11.30;95.53;100909.42;1444252;90;22269;-85
2022/11/10 06:42:40;;;;;;;31.90;20.77;;;;;;;11.31;95.45;100916.91;1443480;89;22349;-84
2022/11/10 06:45:07;;;;;;;28.70;20.30;;;;;;;11.34;95.53;100916.62;1446040;90;21499;-79
2022/11/10 06:47:33;;;;;;;30.03;23.33;;;;;;;11.37;95.28;100924.78;1442962;90;21322;-87
2022/11/10 06:49:59;;;;;;;31.67;22.67;;;;;;;11.36;94.92;100927.06;1453323;90;21630;-88
2022/11/10 06:52:25;;;;;;;33.97;23.27;;;;;;;11.37;94.76;100928.77;1453714;90;21396;-85
2022/11/10 06:54:51;;;;;;;30.67;22.20;;;;;;;11.37;94.61;100926.11;1451375;90;21315;-87
2022/11/10 06:57:17;;;;;;;30.47;21.50;;;;;;;11.37;94.71;100932.23;1445807;90;21425;-85
2022/11/10 06:59:49;;;;;;;27.33;20.37;;;;;;;11.41;94.89;100933.62;1441256;90;21366;-85
2022/11/10 07:02:15;;;;;;;35.50;23.00;;;;;;;11.45;94.71;100940.80;1443917;90;21998;-81
2022/11/10 07:04:41;;;;;;;32.57;22.63;;;;;;;11.44;94.25;100939.97;1442009;90;21351;-87
2022/11/10 07:07:08;;;;;;;40.17;25.87;;;;;;;11.44;94.27;100936.48;1430573;89;21355;-88
2022/11/10 07:09:34;;;;;;;29.67;22.43;;;;;;;11.43;93.73;100941.45;1426248;91;21392;-88
2022/11/10 07:12:00;;;;;;;32.87;22.87;;;;;;;11.40;93.48;100949.68;1425331;90;21436;-88
2022/11/10 07:14:26;;;;;;;33.80;23.50;;;;;;;11.39;93.88;100947.98;1445724;90;21506;-84
2022/11/10 07:16:52;;;;;;;29.90;20.83;;;;;;;11.39;93.96;100946.66;1450487;90;21403;-82
2022/11/10 07:19:18;;;;;;;34.83;24.40;;;;;;;11.41;94.42;100943.39;1447454;90;21337;-78
2022/11/10 07:21:44;;;;;;;30.13;21.93;;;;;;;11.43;94.28;100937.47;1450291;90;21433;-79
2022/11/10 07:24:11;;;;;;;32.90;23.30;;;;;;;11.48;94.45;100944.52;1451668;89;21343;-78
2022/11/10 07:26:37;;;;;;;31.97;22.93;;;;;;;11.53;94.38;100943.58;1445287;89;21520;-79
2022/11/10 07:29:03;;;;;;;29.97;22.10;;;;;;;11.56;94.11;100941.14;1444856;90;22325;-78
2022/11/10 07:31:29;;;;;;;30.93;21.80;;;;;;;11.55;93.67;100940.31;1453577;90;21696;-81
2022/11/10 07:33:55;;;;;;;32.67;21.80;;;;;;;11.56;93.82;100941.14;1454623;90;21410;-78
2022/11/10 07:36:21;;;;;;;32.27;23.40;;;;;;;11.56;93.80;100948.60;1448283;90;21381;-82
2022/11/10 07:38:47;;;;;;;31.07;21.57;;;;;;;11.59;94.12;100944.34;1453844;90;22606;-82
2022/11/10 07:41:15;;;;;;;31.27;21.97;;;;;;;11.66;94.39;100948.11;1448005;90;22247;-81
2022/11/10 07:43:42;;;;;;;31.67;23.53;;;;;;;11.71;94.00;100950.34;1451284;90;21366;-81
2022/11/10 07:46:09;;;;;;;39.50;26.63;;;;;;;11.71;93.42;100956.98;1432441;90;21447;-80
2022/11/10 07:48:35;;;;;;;37.47;25.37;;;;;;;11.74;93.36;100953.55;1452294;88;22151;-80
2022/11/10 07:51:01;;;;;;;54.70;34.30;;;;;;;11.75;93.33;100959.68;1445642;90;21469;-80
2022/11/10 07:53:27;;;;;;;59.50;39.97;;;;;;;11.78;93.11;100963.87;1440535;90;21373;-83
2022/11/10 07:55:54;;;;;;;52.83;36.13;;;;;;;11.79;93.10;100965.53;1451374;89;21359;-83
2022/11/10 07:58:20;;;;;;;49.17;32.70;;;;;;;11.83;93.19;100962.95;1449119;90;21433;-83
2022/11/10 08:00:46;;;;;;;43.03;26.70;;;;;;;11.84;92.59;100968.59;1440882;90;21499;-81
2022/11/10 08:03:19;;;;;;;34.90;26.27;;;;;;;11.84;92.24;100981.86;1461313;90;22403;-82
2022/11/10 08:05:45;;;;;;;37.37;25.83;;;;;;;11.77;91.60;100981.59;1442797;90;21366;-84
2022/11/10 08:08:13;;;;;;;35.87;26.40;;;;;;;11.74;91.66;100983.21;1440591;89;21388;-83
2022/11/10 08:10:40;;;;;;;37.40;25.73;;;;;;;11.71;91.99;100986.98;1451413;90;22297;-82
2022/11/10 08:13:09;;;;;;;35.93;25.63;;;;;;;11.68;92.24;100983.28;1445255;90;22328;-80
2022/11/10 08:15:36;;;;;;;34.87;25.63;;;;;;;11.69;92.56;100991.58;1453441;90;21351;-83
2022/11/10 08:18:11;;;;;;;33.27;23.70;;;;;;;11.68;92.41;100996.55;1441815;90;21373;-83
2022/11/10 08:20:37;;;;;;;34.70;25.03;;;;;;;11.64;92.19;100996.45;1451214;90;21492;-81
2022/11/10 08:23:05;;;;;;;50.10;28.43;;;;;;;11.60;92.13;101001.70;1449322;89;21410;-83
2022/11/10 08:25:34;;;;;;;40.10;25.97;;;;;;;11.59;92.16;101007.13;1447993;90;22343;-82
2022/11/10 08:28:10;;;;;;;33.60;24.73;;;;;;;11.59;92.68;101015.09;1446456;90;21396;-82
2022/11/10 08:30:39;;;;;;;37.93;25.10;;;;;;;11.59;92.85;101013.77;1451586;90;21536;-82
2022/11/10 08:33:08;;;;;;;34.00;24.07;;;;;;;11.56;92.78;101025.48;1444879;90;21322;-83
2022/11/10 08:35:39;;;;;;;40.73;27.87;;;;;;;11.58;92.99;101026.68;1445655;89;21351;-84
2022/11/10 08:38:10;;;;;;;44.93;26.90;;;;;;;11.61;93.04;101029.87;1446607;90;22173;-83
2022/11/10 08:40:37;;;;;;;46.77;28.13;;;;;;;11.64;93.16;101033.58;1439345;90;22361;-83
2022/11/10 08:43:07;;;;;;;38.93;27.53;;;;;;;11.65;92.91;101028.64;1448845;89;21352;-83
2022/11/10 08:45:40;;;;;;;37.80;26.40;;;;;;;11.68;93.28;101036.31;1440651;89;21390;-83
2022/11/10 08:48:12;;;;;;;42.90;29.73;;;;;;;11.69;93.30;101036.66;1442906;90;21396;-83
2022/11/10 08:50:40;;;;;;;53.50;30.87;;;;;;;11.70;93.07;101042.30;1448607;90;21744;-83
2022/11/10 08:53:16;;;;;;;44.77;29.57;;;;;;;11.68;92.79;101044.73;1442499;89;22620;-82
2022/11/10 08:55:43;;;;;;;42.43;29.30;;;;;;;11.68;92.63;101045.59;1425499;91;21352;-80
2022/11/10 08:58:20;;;;;;;46.40;30.60;;;;;;;11.66;92.84;101049.36;1424604;90;22366;-83
2022/11/10 09:00:46;;;;;;;43.10;31.57;;;;;;;11.61;92.85;101052.41;1423489;90;22497;-83
2022/11/10 09:03:20;;;;;;;44.17;28.17;;;;;;;11.57;93.17;101055.01;1421967;91;21589;-83
2022/11/10 09:05:48;;;;;;;40.47;29.07;;;;;;;11.58;93.46;101059.81;1429333;91;22558;-82
2022/11/10 09:08:15;;;;;;;39.30;29.57;;;;;;;11.59;93.57;101063.64;1435565;90;22247;-82
2022/11/10 09:10:45;;;;;;;38.93;28.87;;;;;;;11.56;93.48;101063.92;1444877;89;21529;-84
2022/11/10 09:13:14;;;;;;;41.75;28.45;;;;;;;11.55;93.50;101068.88;1441137;90;21451;-84
2022/11/10 09:15:42;;;;;;;48.47;31.63;;;;;;;11.52;93.59;101071.81;1451019;90;21365;-82
2022/11/10 09:18:11;;;;;;;43.60;27.03;;;;;;;11.53;93.95;101073.47;1451420;90;21381;-84
2022/11/10 09:20:38;;;;;;;40.20;28.20;;;;;;;11.54;94.24;101073.84;1457302;90;21381;-84
2022/11/10 09:23:11;;;;;;;46.53;28.43;;;;;;;11.56;94.42;101074.52;1427752;89;21501;-84
2022/11/10 09:25:37;;;;;;;50.37;32.70;;;;;;;11.57;94.54;101073.56;1442893;90;22432;-83
2022/11/10 09:28:04;;;;;;;56.20;33.57;;;;;;;11.61;94.54;101085.55;1428219;89;21567;-84
2022/11/10 09:30:31;;;;;;;45.93;32.20;;;;;;;11.64;94.34;101090.58;1441184;90;21564;-83
2022/11/10 09:32:59;;;;;;;45.93;30.77;;;;;;;11.66;94.33;101088.64;1440629;90;21516;-82
2022/11/10 09:35:26;;;;;;;41.63;30.10;;;;;;;11.68;94.44;101086.70;1374990;89;21414;-82
2022/11/10 09:37:52;;;;;;;46.33;28.47;;;;;;;11.67;94.40;101092.13;1517720;90;21245;-82
2022/11/10 09:40:26;;;;;;;43.40;29.50;;;;;;;11.71;94.71;101095.70;1355505;90;21245;-81
2022/11/10 09:42:55;;;;;;;45.40;30.20;;;;;;;11.76;95.04;101099.23;1439001;90;21381;-84
2022/11/10 09:45:35;;;;;;;52.73;31.40;;;;;;;11.80;95.03;101105.13;1446187;90;21493;-84
2022/11/10 09:48:23;;;;;;;49.67;33.37;;;;;;;11.81;94.90;101110.77;1433057;90;21361;-85
2022/11/10 09:51:04;;;;;;;47.63;32.50;;;;;;;11.84;94.98;101103.86;1440670;90;22185;-82
2022/11/10 09:53:57;;;;;;;45.67;31.30;;;;;;;11.87;95.16;101100.95;1437733;90;21362;-85
2022/11/10 09:56:35;;;;;;;48.37;31.70;;;;;;;11.90;95.33;101103.33;1440922;90;22463;-83
2022/11/10 09:59:22;;;;;;;45.60;30.50;;;;;;;11.92;95.29;101096.08;1441119;89;21410;-84
2022/11/10 10:02:03;;;;;;;51.00;32.10;;;;;;;11.92;95.38;101103.54;1444871;90;21493;-82
2022/11/10 12:14:04;;;;;;;90.33;50.47;;;;;;;13.01;91.63;101166.44;1498429;85;21625;-80
2022/11/10 12:16:33;;;;;;;90.60;50.87;;;;;;;13.02;91.61;101169.42;1456356;87;21295;-81
2022/11/10 12:19:18;;;;;;;88.13;49.17;;;;;;;12.88;89.56;101162.75;1476033;87;21337;-80
2022/11/10 12:22:23;;;;;;;84.87;49.43;;;;;;;12.88;90.69;101163.25;1510623;85;21746;-80
2022/11/10 12:25:13;;;;;;;75.63;45.17;;;;;;;12.89;91.00;101159.63;1483090;88;21492;-80
2022/11/10 12:27:48;;;;;;;86.17;52.47;;;;;;;12.90;90.88;101174.58;1504117;85;21270;-81
2022/11/10 12:30:17;;;;;;;83.07;49.43;;;;;;;12.87;90.23;101174.87;1470254;87;21397;-81
2022/11/10 12:32:57;;;;;;;97.43;51.53;;;;;;;12.90;90.81;101167.94;1460344;88;22056;-81
2022/11/10 12:35:31;;;;;;;95.40;51.77;;;;;;;12.92;90.81;101171.30;1452496;89;21997;-80
2022/11/10 12:38:08;;;;;;;96.57;51.90;;;;;;;12.90;90.35;101176.41;1446401;89;21381;-80
2022/11/10 12:40:41;;;;;;;87.73;49.10;;;;;;;12.78;89.88;101177.91;1543892;88;21475;-79
2022/11/10 12:43:31;;;;;;;93.53;52.37;;;;;;;12.78;90.59;101177.06;1452579;89;21471;-80
2022/11/10 12:46:01;;;;;;;93.30;48.57;;;;;;;12.77;91.05;101179.36;1450990;88;21354;-79
2022/11/10 12:48:30;;;;;;;;;;;;;;;12.79;91.46;101170.27;1454254;89;22306;-80
2022/11/10 12:51:20;;;;;;;88.97;48.07;;;;;;;12.78;91.45;101169.10;1449177;86;20475;-80
2022/11/10 12:53:47;;;;;;;83.93;47.00;;;;;;;12.77;91.38;101174.05;1472755;87;21582;-81
2022/11/10 12:56:28;;;;;;;81.93;46.57;;;;;;;12.72;91.48;101186.94;1487392;87;21368;-81
2022/11/10 12:59:22;;;;;;;95.17;48.85;;;;;;;12.63;91.49;101190.80;1485486;87;22404;-79
2022/11/10 13:01:53;;;;;;;78.10;42.93;;;;;;;12.60;91.88;101195.53;1513188;85;21396;-81
2022/11/10 13:04:20;;;;;;;73.07;39.43;;;;;;;12.50;92.17;101210.16;1521045;85;22346;-80
2022/11/10 13:07:00;;;;;;;72.07;41.17;;;;;;;12.41;92.48;101211.01;1519169;85;21488;-80
2022/11/10 13:09:33;;;;;;;87.13;44.67;;;;;;;12.26;93.33;101211.09;1509921;85;22387;-79
2022/11/10 13:12:24;;;;;;;82.30;42.37;;;;;;;12.22;93.57;101220.28;1510686;85;21351;-80
2022/11/10 13:14:51;;;;;;;93.67;43.77;;;;;;;12.15;93.86;101219.52;1513097;85;22205;-80
2022/11/10 13:17:32;;;;;;;85.97;44.23;;;;;;;12.09;94.50;101225.38;1485023;85;21358;-79
2022/11/10 13:20:02;;;;;;;;;;;;;;;12.00;95.13;101234.17;1508157;85;21396;-81
2022/11/10 13:22:39;;;;;;;82.73;38.07;;;;;;;11.93;96.00;101230.37;1511410;85;20329;-80
2022/11/10 13:25:44;;;;;;;81.37;38.30;;;;;;;11.90;96.20;101231.98;1511508;85;21523;-82
2022/11/10 13:28:11;;;;;;;89.60;41.43;;;;;;;11.89;96.11;101231.64;1508741;85;22508;-80
2022/11/10 13:30:45;;;;;;;82.90;42.10;;;;;;;11.86;96.20;101223.95;1511851;85;21381;-81
2022/11/10 13:33:35;;;;;;;86.27;43.03;;;;;;;11.83;96.21;101229.50;1488283;87;21331;-81
2022/11/10 13:36:02;;;;;;;82.72;43.33;;;;;;;11.85;96.72;101231.05;1466978;87;22203;-79
2022/11/10 13:38:44;;;;;;;78.57;42.00;;;;;;;11.84;96.91;101231.16;1465685;88;21389;-80